Time;durP1;ratioP1;P1;durP2;ratioP2;P2;SDS_P1;SDS_P2;PMS_P1;PMS_P2;Temp;Humidity;BMP_temperature;BMP_pressure;BME280_temperature;BME280_humidity;BME280_pressure;Samples;Min_cycle;Max_cycle;Signal;HPM_P1;HPM_P2
2021/10/29 07:40:26;;;;;;;1999.90;999.90;;;16.30;99.90;;;;;;5089660;28;20172;-69
2021/10/29 07:43:00;;;;;;;1999.90;999.90;;;16.30;99.90;;;;;;5089592;28;20530;-73
2021/10/29 07:45:28;;;;;;;1999.90;999.90;;;16.20;99.90;;;;;;5089809;28;20289;-74
2021/10/29 07:47:59;;;;;;;1999.90;999.90;;;16.20;99.90;;;;;;5089546;28;20568;-73
2021/10/29 07:50:26;;;;;;;1999.90;999.90;;;16.20;99.90;;;;;;5089579;28;20633;-71
2021/10/29 07:52:55;;;;;;;1999.90;999.90;;;16.30;99.90;;;;;;5089448;28;20721;-75
2021/10/29 07:55:25;;;;;;;1999.90;999.90;;;16.40;99.90;;;;;;5089317;28;20211;-69
2021/10/29 07:57:53;;;;;;;1999.90;999.90;;;16.40;99.90;;;;;;5089506;28;20168;-71
2021/10/29 08:00:21;;;;;;;1999.90;999.90;;;16.40;99.90;;;;;;5088836;28;20179;-72
2021/10/29 08:02:50;;;;;;;1999.90;999.90;;;16.50;99.90;;;;;;5088437;28;20168;-71
2021/10/29 08:05:18;;;;;;;1999.90;999.90;;;16.70;99.90;;;;;;5088025;28;20167;-71
2021/10/29 08:07:44;;;;;;;1999.90;999.90;;;16.70;99.90;;;;;;5089071;28;20577;-72
2021/10/29 08:10:12;;;;;;;1999.90;999.90;;;16.80;99.90;;;;;;5089010;28;20170;-71
2021/10/29 08:12:40;;;;;;;1999.90;999.90;;;16.90;99.90;;;;;;5089165;28;20164;-72
2021/10/29 08:15:09;;;;;;;1999.90;999.90;;;17.20;99.90;;;;;;5088662;28;20227;-68
2021/10/29 08:17:37;;;;;;;1999.90;999.90;;;17.30;99.90;;;;;;5087811;28;20190;-67
2021/10/29 08:20:06;;;;;;;1999.90;999.90;;;17.60;99.90;;;;;;5088977;28;20203;-69
2021/10/29 08:22:34;;;;;;;1999.90;999.90;;;17.50;99.90;;;;;;5089139;28;20649;-70
2021/10/29 08:25:01;;;;;;;1999.90;999.90;;;17.30;99.90;;;;;;5086223;28;20169;-69
2021/10/29 08:27:27;;;;;;;1999.90;999.90;;;17.30;99.90;;;;;;5075236;28;20468;-67
2021/10/29 08:29:55;;;;;;;1999.90;999.90;;;17.30;99.90;;;;;;5075399;28;20168;-71
2021/10/29 08:32:22;;;;;;;1999.90;999.90;;;17.30;99.90;;;;;;5075289;28;20619;-68
2021/10/29 08:34:49;;;;;;;1999.90;999.90;;;17.20;99.90;;;;;;5074531;28;20213;-71
2021/10/29 08:37:16;;;;;;;1999.90;999.90;;;17.10;99.90;;;;;;5074982;28;20555;-68
2021/10/29 08:39:43;;;;;;;1999.90;999.90;;;17.20;99.90;;;;;;5075090;28;20176;-71
2021/10/29 08:42:11;;;;;;;1999.90;999.90;;;17.60;99.90;;;;;;5075248;28;20524;-71
2021/10/29 08:44:38;;;;;;;1999.90;999.90;;;17.70;99.90;;;;;;5075098;28;20164;-73
2021/10/29 08:47:05;;;;;;;1999.90;999.90;;;17.90;99.90;;;;;;5075177;28;20166;-79
2021/10/29 08:49:34;;;;;;;1999.90;999.90;;;18.10;99.90;;;;;;5075240;28;20172;-67
2021/10/29 08:52:03;;;;;;;1999.90;999.90;;;18.30;99.90;;;;;;5074873;28;20251;-68
2021/10/29 08:54:30;;;;;;;1999.90;999.90;;;18.20;99.90;;;;;;5073465;28;20215;-67
2021/10/29 08:57:00;;;;;;;1999.90;999.90;;;18.30;99.90;;;;;;5074758;28;20257;-70
2021/10/29 08:59:33;;;;;;;1999.90;999.90;;;18.30;99.90;;;;;;5074858;28;20210;-69
2021/10/29 09:02:17;;;;;;;1999.90;999.90;;;18.50;99.90;;;;;;5074458;28;20153;-75
2021/10/29 09:07:29;;;;;;;1999.90;999.90;;;19.50;99.90;;;;;;5074565;28;20251;-65
2021/10/29 09:10:27;;;;;;;1999.90;999.90;;;19.60;99.90;;;;;;5074374;28;20168;-66
2021/10/29 09:32:36;;;;;;;1999.90;999.90;;;22.90;99.90;;;;;;5074247;28;20194;-65
2021/10/29 09:35:08;;;;;;;1999.90;999.90;;;23.40;99.90;;;;;;5073927;28;20636;-73
2021/10/29 09:38:10;;;;;;;1999.90;999.90;;;23.50;99.90;;;;;;5072855;28;20214;-74
2021/10/29 09:41:00;;;;;;;1999.90;999.90;;;23.90;99.90;;;;;;5073948;28;20164;-72
2021/10/29 09:43:32;;;;;;;1999.90;999.90;;;23.70;99.90;;;;;;5073848;28;20153;-72
2021/10/29 09:46:02;;;;;;;1999.90;999.90;;;23.70;99.90;;;;;;5073798;28;20536;-75
2021/10/29 09:48:51;;;;;;;1999.90;999.90;;;23.40;99.90;;;;;;5073428;28;20221;-70
2021/10/29 09:51:21;;;;;;;1999.90;999.90;;;23.50;99.90;;;;;;5073481;28;20259;-72
2021/10/29 09:58:57;;;;;;;1999.90;999.90;;;23.50;99.90;;;;;;5073116;28;20247;-74
2021/10/29 10:01:29;;;;;;;1999.90;999.90;;;23.70;99.90;;;;;;5073085;28;20172;-67
2021/10/29 10:04:02;;;;;;;1999.90;999.90;;;24.10;99.90;;;;;;5073340;28;20203;-67
2021/10/29 10:06:33;;;;;;;1999.90;999.90;;;24.40;99.90;;;;;;5073434;28;20149;-66
2021/10/29 10:09:02;;;;;;;1999.90;999.90;;;24.90;99.90;;;;;;5073435;28;20157;-66
2021/10/29 10:11:31;;;;;;;1999.90;999.90;;;24.70;99.90;;;;;;5073316;28;20164;-63
2021/10/29 10:13:58;;;;;;;1999.90;999.90;;;25.00;99.90;;;;;;5072887;28;20216;-63
2021/10/29 10:16:30;;;;;;;1999.90;999.90;;;24.90;99.90;;;;;;5073134;28;20169;-63
2021/10/29 10:18:57;;;;;;;1999.90;999.90;;;24.90;99.90;;;;;;5073037;28;20520;-64
2021/10/29 10:21:27;;;;;;;1999.90;999.90;;;25.10;99.90;;;;;;5073077;28;20618;-66
2021/10/29 10:23:57;;;;;;;1999.90;999.90;;;24.80;99.90;;;;;;5073193;28;20306;-67
2021/10/29 10:29:32;;;;;;;1999.90;999.90;;;24.30;99.90;;;;;;5073039;28;20164;-64
2021/10/29 10:48:40;;;;;;;1999.90;999.90;;;24.60;99.90;;;;;;5072297;28;20153;-60
2021/10/29 10:54:19;;;;;;;1999.90;999.90;;;24.10;99.90;;;;;;5072625;28;20202;-61
2021/10/29 11:02:35;;;;;;;1999.90;999.90;;;26.10;99.20;;;;;;5072222;28;20218;-61
2021/10/29 11:05:31;;;;;;;1999.90;999.90;;;26.10;96.40;;;;;;5071998;28;20187;-64
2021/10/29 11:11:15;;;;;;;1999.90;999.90;;;24.60;99.90;;;;;;5072241;28;20554;-65
2021/10/29 11:13:45;;;;;;;1999.90;999.90;;;24.10;99.90;;;;;;5072173;28;20381;-64
2021/10/29 11:16:40;;;;;;;1999.90;999.90;;;23.70;99.90;;;;;;5072233;28;20255;-65
2021/10/29 11:19:12;;;;;;;1999.90;999.90;;;23.30;99.90;;;;;;5070890;28;20181;-64
2021/10/29 11:21:53;;;;;;;1999.90;999.90;;;23.10;99.90;;;;;;5072300;28;20239;-64
2021/10/29 11:24:37;;;;;;;1999.90;999.90;;;22.80;99.90;;;;;;5072459;28;20149;-64
2021/10/29 11:27:13;;;;;;;1999.90;999.90;;;22.30;99.90;;;;;;5072488;28;20192;-63
2021/10/29 11:29:52;;;;;;;1999.90;999.90;;;22.00;99.90;;;;;;5072248;28;20159;-63
2021/10/29 11:32:21;;;;;;;1999.90;999.90;;;21.80;99.90;;;;;;5072036;28;20210;-65
2021/10/29 11:34:53;;;;;;;1999.90;999.90;;;21.50;99.90;;;;;;5070806;28;20245;-65
2021/10/29 11:37:20;;;;;;;1999.90;999.90;;;21.10;99.90;;;;;;5071000;28;20191;-64
2021/10/29 11:39:47;;;;;;;1999.90;999.90;;;20.80;99.90;;;;;;5072058;28;20177;-65
2021/10/29 11:42:18;;;;;;;1999.90;999.90;;;20.50;99.90;;;;;;5072146;28;20581;-66
2021/10/29 11:44:45;;;;;;;1999.90;999.90;;;20.20;99.90;;;;;;5072311;28;20163;-65
2021/10/29 11:47:13;;;;;;;1999.90;999.90;;;20.10;99.90;;;;;;5072212;28;20216;-66
2021/10/29 11:49:40;;;;;;;1999.90;999.90;;;20.00;99.90;;;;;;5072134;28;20253;-66
2021/10/29 11:52:08;;;;;;;1999.90;999.90;;;20.00;99.90;;;;;;5072075;28;20264;-65
2021/10/29 11:54:41;;;;;;;1999.90;999.90;;;19.90;99.90;;;;;;5071947;28;20200;-65
2021/10/29 11:57:23;;;;;;;1999.90;999.90;;;20.00;99.90;;;;;;5071915;28;20168;-65
2021/10/29 12:08:27;;;;;;;1999.90;999.90;;;20.00;99.90;;;;;;5075537;28;20476;-65
2021/10/29 12:11:03;;;;;;;1999.90;999.90;;;19.80;99.90;;;;;;5075735;28;20567;-66
2021/10/29 12:13:32;;;;;;;1999.90;999.90;;;19.90;99.90;;;;;;5075372;28;20308;-67
2021/10/29 12:15:59;;;;;;;1999.90;999.90;;;19.90;99.90;;;;;;5075607;28;20522;-65
2021/10/29 12:18:33;;;;;;;1999.90;999.90;;;19.80;99.90;;;;;;5075227;28;20164;-64
2021/10/29 12:21:00;;;;;;;1999.90;999.90;;;19.90;99.90;;;;;;5075477;28;20169;-64
2021/10/29 12:23:29;;;;;;;1999.90;999.90;;;20.00;99.90;;;;;;5075488;28;20226;-65
2021/10/29 12:26:02;;;;;;;1999.90;999.90;;;20.10;99.90;;;;;;5075382;28;20165;-65
2021/10/29 13:01:41;;;;;;;1999.90;999.90;;;20.90;99.90;;;;;;5074719;28;20168;-65
2021/10/29 13:04:22;;;;;;;1999.90;999.90;;;21.00;99.90;;;;;;5074635;28;20241;-64
2021/10/29 13:06:55;;;;;;;1999.90;999.90;;;21.00;99.90;;;;;;5074608;28;20259;-64
2021/10/29 13:09:27;;;;;;;1999.90;999.90;;;21.10;99.90;;;;;;5074605;28;20210;-64
2021/10/29 13:11:57;;;;;;;1999.90;999.90;;;21.10;99.90;;;;;;5074472;28;20167;-64
2021/10/29 13:14:38;;;;;;;1999.90;999.90;;;21.20;99.90;;;;;;5074106;28;20275;-64
2021/10/29 13:17:15;;;;;;;1999.90;999.90;;;21.30;99.90;;;;;;5074429;28;20149;-63
2021/10/29 13:19:57;;;;;;;1999.90;999.90;;;21.40;99.90;;;;;;5074402;28;20157;-64
2021/10/29 13:52:00;;;;;;;1999.90;999.90;;;21.80;99.90;;;;;;5073550;28;20206;-65
2021/10/29 14:34:57;;;;;;;1999.90;999.90;;;21.70;99.70;;;;;;5072679;28;20188;-66
2021/10/29 14:37:45;;;;;;;1999.90;999.90;;;21.60;98.60;;;;;;5072992;28;20169;-65
2021/10/29 14:40:21;;;;;;;1999.90;999.90;;;21.50;98.40;;;;;;5073043;28;20197;-67
2021/10/29 14:42:53;;;;;;;1999.90;999.90;;;21.40;98.40;;;;;;5072907;28;20160;-66
2021/10/29 14:45:31;;;;;;;1999.90;999.90;;;21.30;98.10;;;;;;5072885;28;20231;-65
2021/10/29 15:24:42;;;;;;;1999.90;999.90;;;21.40;96.90;;;;;;5030195;28;20204;-66
2021/10/29 15:29:14;;;;;;;1999.90;999.90;;;21.20;99.90;;;;;;5071878;28;20164;-66
2021/10/29 15:43:13;;;;;;;1999.90;999.90;;;21.10;99.90;;;;;;5076233;28;20222;-66
2021/10/29 15:45:39;;;;;;;1999.90;999.90;;;21.10;99.90;;;;;;5075855;28;20207;-65
2021/10/29 15:48:26;;;;;;;1999.90;999.90;;;21.10;99.90;;;;;;5076090;28;20180;-65
2021/10/29 15:50:53;;;;;;;1999.90;999.90;;;20.90;99.90;;;;;;5076198;28;20176;-65
2021/10/29 15:53:20;;;;;;;1999.90;999.90;;;20.90;99.90;;;;;;5076180;28;20172;-65
2021/10/29 15:56:00;;;;;;;1999.90;999.90;;;20.90;99.90;;;;;;5075888;28;20208;-65
2021/10/29 16:17:33;;;;;;;1999.90;999.90;;;20.80;99.90;;;;;;5075450;28;20214;-65
2021/10/29 16:20:00;;;;;;;1999.90;999.90;;;20.80;99.90;;;;;;5075068;28;20610;-65
2021/10/29 16:22:32;;;;;;;1999.90;999.90;;;20.80;99.90;;;;;;5075076;28;20350;-65
2021/10/29 16:25:04;;;;;;;1999.90;999.90;;;20.70;99.90;;;;;;5075231;28;20159;-65
2021/10/29 16:28:13;;;;;;;1999.90;999.90;;;20.70;99.90;;;;;;5075196;28;20148;-65
2021/10/29 16:30:24;;;;;;;1999.90;999.90;;;20.70;99.90;;;;;;5069566;28;20280;-65
2021/10/29 16:35:45;;;;;;;1999.90;999.90;;;20.40;99.90;;;;;;5075210;28;20204;-68
2021/10/29 16:38:12;;;;;;;1999.90;999.90;;;20.20;99.90;;;;;;5075293;28;20214;-69
2021/10/29 16:40:39;;;;;;;1999.90;999.90;;;19.90;99.90;;;;;;5075139;28;20218;-69
2021/10/29 16:43:06;;;;;;;1999.90;999.90;;;19.40;99.90;;;;;;5075101;28;20164;-68
2021/10/29 16:45:34;;;;;;;1999.90;999.90;;;19.00;99.90;;;;;;5073704;28;20217;-68
2021/10/29 16:48:01;;;;;;;1999.90;999.90;;;18.80;99.90;;;;;;5074536;28;20169;-69
2021/10/29 16:50:28;;;;;;;1999.90;999.90;;;18.70;99.90;;;;;;5075354;28;20517;-69
2021/10/29 16:52:55;;;;;;;1999.90;999.90;;;18.60;99.90;;;;;;5075087;28;20161;-69
2021/10/29 16:55:22;;;;;;;1999.90;999.90;;;18.50;99.90;;;;;;5074727;28;20204;-68
2021/10/29 16:57:48;;;;;;;1999.90;999.90;;;18.50;99.90;;;;;;5074746;28;20164;-68
2021/10/29 17:00:16;;;;;;;1999.90;999.90;;;18.50;99.90;;;;;;5074752;28;20204;-69
2021/10/29 17:02:43;;;;;;;1999.90;999.90;;;18.50;99.90;;;;;;5074543;28;20219;-68
2021/10/29 17:05:11;;;;;;;1999.90;999.90;;;18.50;99.90;;;;;;5074432;28;20161;-68
2021/10/29 17:07:42;;;;;;;1999.90;999.90;;;18.50;99.90;;;;;;5074362;28;20173;-67
2021/10/29 17:10:11;;;;;;;1999.90;999.90;;;18.50;99.90;;;;;;5074343;28;20199;-67
2021/10/29 17:12:42;;;;;;;1999.90;999.90;;;18.60;99.90;;;;;;5074467;28;20172;-66
2021/10/29 17:15:11;;;;;;;1999.90;999.90;;;18.70;99.90;;;;;;5074174;28;20224;-66
2021/10/29 17:17:38;;;;;;;1999.90;999.90;;;18.80;99.90;;;;;;5074280;28;20226;-67
2021/10/29 17:20:08;;;;;;;1999.90;999.90;;;18.80;99.90;;;;;;5074214;28;20172;-66
2021/10/29 17:22:35;;;;;;;1999.90;999.90;;;18.80;99.90;;;;;;5074339;28;20506;-66
2021/10/29 17:25:03;;;;;;;1999.90;999.90;;;18.80;99.90;;;;;;5074216;28;20191;-66
2021/10/29 17:27:30;;;;;;;1999.90;999.90;;;18.80;99.90;;;;;;5072871;28;20638;-66
2021/10/29 17:29:57;;;;;;;1999.90;999.90;;;18.80;99.90;;;;;;5073797;28;20165;-66
2021/10/29 17:32:24;;;;;;;1999.90;999.90;;;18.80;99.90;;;;;;5073998;28;20175;-66
2021/10/29 17:34:51;;;;;;;1999.90;999.90;;;18.80;99.90;;;;;;5073864;28;20306;-65
2021/10/29 17:37:18;;;;;;;1999.90;999.90;;;18.80;99.90;;;;;;5073888;28;20226;-66
2021/10/29 17:39:45;;;;;;;1999.90;999.90;;;18.80;99.90;;;;;;5073905;28;20171;-67
2021/10/29 17:42:13;;;;;;;1999.90;999.90;;;18.80;99.90;;;;;;5073885;28;20168;-66
2021/10/29 17:44:41;;;;;;;1999.90;999.90;;;18.80;99.90;;;;;;5073797;28;20515;-66
2021/10/29 17:47:09;;;;;;;1999.90;999.90;;;18.70;99.90;;;;;;5073742;28;20162;-66
2021/10/29 17:49:38;;;;;;;1999.90;999.90;;;18.70;99.90;;;;;;5073776;28;20244;-66
2021/10/29 17:52:06;;;;;;;1999.90;999.90;;;18.70;99.90;;;;;;5073641;28;20653;-66
2021/10/29 17:54:41;;;;;;;1999.90;999.90;;;18.70;99.90;;;;;;5073564;28;20204;-66
2021/10/29 17:57:13;;;;;;;1999.90;999.90;;;18.60;99.90;;;;;;5073686;28;20160;-66
2021/10/29 17:59:40;;;;;;;1999.90;999.90;;;18.60;99.90;;;;;;5072668;28;20187;-66
2021/10/29 18:02:10;;;;;;;1999.90;999.90;;;18.60;99.90;;;;;;5073329;28;20283;-66
2021/10/29 18:04:39;;;;;;;1999.90;999.90;;;18.60;99.90;;;;;;5073521;28;20163;-66
2021/10/29 18:07:07;;;;;;;1999.90;999.90;;;18.50;99.90;;;;;;5073243;28;20247;-66
2021/10/29 18:09:38;;;;;;;1999.90;999.90;;;18.50;99.90;;;;;;5073242;28;20202;-65
2021/10/29 18:12:06;;;;;;;1999.90;999.90;;;18.50;99.90;;;;;;5073204;28;20259;-65
2021/10/29 18:14:35;;;;;;;1999.90;999.90;;;18.60;99.90;;;;;;5073372;28;20674;-66
2021/10/29 18:17:02;;;;;;;1999.90;999.90;;;18.70;99.90;;;;;;5073515;28;20199;-66
2021/10/29 18:19:30;;;;;;;1999.90;999.90;;;18.60;99.90;;;;;;5073305;28;20168;-66
2021/10/29 18:21:56;;;;;;;1999.90;999.90;;;18.60;99.90;;;;;;5073189;28;20165;-66
2021/10/29 18:24:23;;;;;;;1999.90;999.90;;;18.60;99.90;;;;;;5073146;28;20197;-65
2021/10/29 18:26:50;;;;;;;1999.90;999.90;;;18.50;99.90;;;;;;5073124;28;20343;-64
2021/10/29 18:29:17;;;;;;;1999.90;999.90;;;18.50;99.90;;;;;;5073048;28;20222;-65
2021/10/29 18:31:44;;;;;;;1999.90;999.90;;;18.50;99.90;;;;;;5072828;28;20168;-65
2021/10/29 18:34:11;;;;;;;1999.90;999.90;;;18.40;99.90;;;;;;5072831;28;20200;-65
2021/10/29 18:36:38;;;;;;;1999.90;999.90;;;18.40;99.90;;;;;;5072727;28;20175;-65
2021/10/29 18:39:05;;;;;;;1999.90;999.90;;;18.30;99.90;;;;;;5071660;28;20530;-65
2021/10/29 18:41:33;;;;;;;1999.90;999.90;;;18.40;99.90;;;;;;5072900;28;20222;-65
2021/10/29 18:44:06;;;;;;;1999.90;999.90;;;18.30;99.90;;;;;;5072679;28;20176;-66
2021/10/29 18:46:34;;;;;;;1999.90;999.90;;;18.40;99.90;;;;;;5072881;28;20252;-65
2021/10/29 18:49:01;;;;;;;1999.90;999.90;;;18.40;99.90;;;;;;5072769;28;20172;-65
2021/10/29 18:51:28;;;;;;;1999.90;999.90;;;18.30;99.90;;;;;;5072691;28;20180;-65
2021/10/29 18:53:56;;;;;;;1999.90;999.90;;;18.40;99.90;;;;;;5072715;28;20533;-65
2021/10/29 18:56:23;;;;;;;1999.90;999.90;;;18.40;99.90;;;;;;5072515;28;20255;-65
2021/10/29 18:58:50;;;;;;;1999.90;999.90;;;18.40;99.90;;;;;;5072354;28;20176;-65
2021/10/29 19:01:16;;;;;;;1999.90;999.90;;;18.40;99.90;;;;;;5072343;28;20180;-64
2021/10/29 19:03:43;;;;;;;1999.90;999.90;;;18.30;99.90;;;;;;5072450;28;20165;-65
2021/10/29 19:06:15;;;;;;;1999.90;999.90;;;18.30;99.90;;;;;;5072495;28;20194;-65
2021/10/29 19:08:43;;;;;;;1999.90;999.90;;;18.20;99.90;;;;;;5072097;28;20195;-65
2021/10/29 19:11:11;;;;;;;1999.90;999.90;;;18.10;99.90;;;;;;5072092;28;20204;-65
2021/10/29 19:13:38;;;;;;;1999.90;999.90;;;18.10;99.90;;;;;;5072233;28;20253;-65
2021/10/29 19:16:05;;;;;;;1999.90;999.90;;;18.10;99.90;;;;;;5072671;28;20157;-65
2021/10/29 19:18:33;;;;;;;1999.90;999.90;;;18.00;99.90;;;;;;5072415;28;20164;-64
2021/10/29 19:20:59;;;;;;;1999.90;999.90;;;18.00;99.90;;;;;;5072489;28;20172;-65
2021/10/29 19:23:26;;;;;;;1999.90;999.90;;;18.00;99.90;;;;;;5072191;28;20172;-65
2021/10/29 19:25:53;;;;;;;1999.90;999.90;;;18.10;99.90;;;;;;5072299;28;20179;-65
2021/10/29 19:28:20;;;;;;;1999.90;999.90;;;18.10;99.90;;;;;;5072212;28;20164;-65
2021/10/29 19:30:47;;;;;;;1999.90;999.90;;;18.10;99.90;;;;;;5072166;28;20171;-65
2021/10/29 19:33:14;;;;;;;1999.90;999.90;;;18.10;99.90;;;;;;5072082;28;20691;-65
2021/10/29 19:35:45;;;;;;;1999.90;999.90;;;18.10;99.90;;;;;;5072059;28;20292;-65
2021/10/29 19:38:13;;;;;;;1999.90;999.90;;;18.10;99.90;;;;;;5072207;28;20189;-65
2021/10/29 19:40:46;;;;;;;1999.90;999.90;;;18.00;99.90;;;;;;5071874;28;20259;-65
2021/10/29 19:43:14;;;;;;;1999.90;999.90;;;18.00;99.90;;;;;;5072050;28;20149;-65
2021/10/29 19:45:43;;;;;;;1999.90;999.90;;;18.00;99.90;;;;;;5072211;28;20164;-65
2021/10/29 19:48:11;;;;;;;1999.90;999.90;;;18.00;99.90;;;;;;5071097;28;20495;-65
2021/10/29 19:50:41;;;;;;;1999.90;999.90;;;17.90;99.90;;;;;;5071977;28;20650;-65
2021/10/29 19:53:08;;;;;;;1999.90;999.90;;;17.80;99.90;;;;;;5072064;28;20180;-65
2021/10/29 19:55:39;;;;;;;1999.90;999.90;;;17.80;99.90;;;;;;5071925;28;20662;-65
2021/10/29 20:00:36;;;;;;;1999.90;999.90;;;17.70;99.90;;;;;;5071874;28;20200;-65
2021/10/29 20:03:03;;;;;;;1999.90;999.90;;;17.70;99.90;;;;;;5071950;28;20168;-65
2021/10/29 20:05:30;;;;;;;1999.90;999.90;;;17.60;99.90;;;;;;5070583;28;20537;-65
2021/10/29 20:07:57;;;;;;;1999.90;999.90;;;17.50;99.90;;;;;;5072052;28;20572;-65
2021/10/29 20:10:25;;;;;;;1999.90;999.90;;;17.40;99.90;;;;;;5072150;28;20191;-65
2021/10/29 20:12:51;;;;;;;1999.90;999.90;;;17.40;99.90;;;;;;5072102;28;20178;-65
2021/10/29 20:15:19;;;;;;;1999.90;999.90;;;17.30;99.90;;;;;;5070493;28;20263;-65
2021/10/29 20:17:47;;;;;;;1999.90;999.90;;;17.30;99.90;;;;;;5072142;28;20169;-65
2021/10/29 20:20:14;;;;;;;1999.90;999.90;;;17.20;99.90;;;;;;5072046;28;20184;-65
2021/10/29 20:22:41;;;;;;;1999.90;999.90;;;17.20;99.90;;;;;;5074486;28;20168;-65
2021/10/29 20:25:08;;;;;;;1999.90;999.90;;;17.30;99.90;;;;;;5075294;28;20230;-65
2021/10/29 20:27:36;;;;;;;1999.90;999.90;;;17.30;99.90;;;;;;5075129;28;20211;-65
2021/10/29 20:30:03;;;;;;;1999.90;999.90;;;17.30;99.90;;;;;;5075196;28;20230;-65
2021/10/29 20:32:30;;;;;;;1999.90;999.90;;;17.30;99.90;;;;;;5075381;28;20683;-64
2021/10/29 20:34:57;;;;;;;1999.90;999.90;;;17.20;99.90;;;;;;5075147;28;20269;-64
2021/10/29 20:37:24;;;;;;;1999.90;999.90;;;17.10;99.90;;;;;;5075380;28;20687;-64
2021/10/29 20:39:51;;;;;;;1999.90;999.90;;;17.10;99.90;;;;;;5075212;28;20722;-64
2021/10/29 20:42:18;;;;;;;1999.90;999.90;;;17.10;99.90;;;;;;5075295;28;20168;-64
2021/10/29 20:44:45;;;;;;;1999.90;999.90;;;17.10;99.90;;;;;;5075284;28;20207;-64
2021/10/29 20:47:13;;;;;;;1999.90;999.90;;;17.10;99.90;;;;;;5075331;28;20196;-64
2021/10/29 20:49:43;;;;;;;1999.90;999.90;;;17.20;99.90;;;;;;5075372;28;20181;-64
2021/10/29 20:52:13;;;;;;;1999.90;999.90;;;17.20;99.90;;;;;;5075280;28;20160;-64
2021/10/29 20:54:41;;;;;;;1999.90;999.90;;;17.30;99.90;;;;;;5075021;28;20291;-64
2021/10/29 20:57:09;;;;;;;1999.90;999.90;;;17.30;99.90;;;;;;5074088;28;20540;-64
2021/10/29 20:59:35;;;;;;;1999.90;999.90;;;17.30;99.90;;;;;;5075218;28;20192;-64
2021/10/29 21:02:02;;;;;;;1999.90;999.90;;;17.30;99.90;;;;;;5075034;28;20540;-64
2021/10/29 21:04:29;;;;;;;1999.90;999.90;;;17.30;99.90;;;;;;5075098;28;20165;-64
2021/10/29 21:06:56;;;;;;;1999.90;999.90;;;17.30;99.90;;;;;;5074965;28;20180;-64
2021/10/29 21:09:23;;;;;;;1999.90;999.90;;;17.30;99.90;;;;;;5074940;28;20171;-64
2021/10/29 21:11:50;;;;;;;1999.90;999.90;;;17.30;99.90;;;;;;5074852;28;20176;-64
2021/10/29 21:14:17;;;;;;;1999.90;999.90;;;17.20;99.90;;;;;;5074729;28;20686;-64
2021/10/29 21:16:44;;;;;;;1999.90;999.90;;;17.30;99.90;;;;;;5074768;28;20261;-64
2021/10/29 21:19:11;;;;;;;1999.90;999.90;;;17.30;99.90;;;;;;5074768;28;20160;-64
2021/10/29 21:21:38;;;;;;;1999.90;999.90;;;17.30;99.90;;;;;;5074671;28;20177;-64
2021/10/29 21:24:05;;;;;;;1999.90;999.90;;;17.30;99.90;;;;;;5074677;28;20167;-64
2021/10/29 21:26:33;;;;;;;1999.90;999.90;;;17.30;99.90;;;;;;5074655;28;20165;-65
2021/10/29 21:29:00;;;;;;;1999.90;999.90;;;17.30;99.90;;;;;;5074598;28;20172;-64
2021/10/29 21:31:26;;;;;;;1999.90;999.90;;;17.20;99.90;;;;;;5074497;28;20169;-64
2021/10/29 21:33:54;;;;;;;1999.90;999.90;;;17.20;99.90;;;;;;5074389;28;20169;-64
2021/10/29 21:36:20;;;;;;;1999.90;999.90;;;17.20;99.90;;;;;;5074373;28;20187;-64
2021/10/29 21:38:47;;;;;;;1999.90;999.90;;;17.20;99.90;;;;;;5074327;28;20221;-64
2021/10/29 21:41:14;;;;;;;1999.90;999.90;;;17.10;99.90;;;;;;5074323;28;20172;-64
2021/10/29 21:43:41;;;;;;;1999.90;999.90;;;17.20;99.90;;;;;;5074200;28;20204;-64
2021/10/29 21:46:08;;;;;;;1999.90;999.90;;;17.20;99.90;;;;;;5074224;28;20180;-64
2021/10/29 21:48:35;;;;;;;1999.90;999.90;;;17.20;99.90;;;;;;5074139;28;20630;-64
2021/10/29 21:51:02;;;;;;;1999.90;999.90;;;17.20;99.90;;;;;;5074406;28;20514;-64
2021/10/29 21:53:29;;;;;;;1999.90;999.90;;;17.20;99.90;;;;;;5074053;28;20634;-64
2021/10/29 21:55:56;;;;;;;1999.90;999.90;;;17.20;99.90;;;;;;5074177;28;20576;-64
2021/10/29 21:58:23;;;;;;;1999.90;999.90;;;17.20;99.90;;;;;;5073952;28;20255;-63
2021/10/29 22:00:51;;;;;;;1999.90;999.90;;;17.20;99.90;;;;;;5074024;28;20176;-63
2021/10/29 22:03:20;;;;;;;1999.90;999.90;;;17.10;99.90;;;;;;5073946;28;20187;-63
2021/10/29 22:05:47;;;;;;;1999.90;999.90;;;17.10;99.90;;;;;;5073769;28;20585;-64
2021/10/29 22:08:15;;;;;;;1999.90;999.90;;;17.00;99.90;;;;;;5073860;28;20173;-63
2021/10/29 22:10:45;;;;;;;1999.90;999.90;;;17.00;99.90;;;;;;5073710;28;20699;-64
2021/10/29 22:13:12;;;;;;;1999.90;999.90;;;16.90;99.90;;;;;;5073538;28;20172;-64
2021/10/29 22:15:38;;;;;;;1999.90;999.90;;;16.90;99.90;;;;;;5073590;28;20192;-63
2021/10/29 22:18:06;;;;;;;1999.90;999.90;;;16.90;99.90;;;;;;5073634;28;20577;-63
2021/10/29 22:20:34;;;;;;;1999.90;999.90;;;16.80;99.90;;;;;;5073588;28;20230;-63
2021/10/29 22:23:01;;;;;;;1999.90;999.90;;;16.70;99.90;;;;;;5073396;28;20207;-63
2021/10/29 22:25:28;;;;;;;1999.90;999.90;;;16.70;99.90;;;;;;5073450;28;20202;-63
2021/10/29 22:27:55;;;;;;;1999.90;999.90;;;16.70;99.90;;;;;;5072126;28;20179;-64
2021/10/29 22:30:23;;;;;;;1999.90;999.90;;;16.70;99.90;;;;;;5073413;28;20169;-64
2021/10/29 22:32:50;;;;;;;1999.90;999.90;;;16.60;99.90;;;;;;5073431;28;20213;-64
2021/10/29 22:35:17;;;;;;;1999.90;999.90;;;16.60;99.90;;;;;;5073228;28;20197;-64
2021/10/29 22:37:44;;;;;;;1999.90;999.90;;;16.50;99.90;;;;;;5073314;28;20177;-64
2021/10/29 22:40:12;;;;;;;1999.90;999.90;;;16.40;99.90;;;;;;5073236;28;20697;-64
2021/10/29 22:42:39;;;;;;;1999.90;999.90;;;16.40;99.90;;;;;;5073239;28;20165;-64
2021/10/29 22:45:07;;;;;;;1999.90;999.90;;;16.30;99.90;;;;;;5072817;28;20200;-64
2021/10/29 22:47:34;;;;;;;1999.90;999.90;;;16.20;99.90;;;;;;5073170;28;20254;-64
2021/10/29 22:50:01;;;;;;;1999.90;999.90;;;16.20;99.90;;;;;;5073187;28;20180;-63
2021/10/29 22:52:29;;;;;;;1999.90;999.90;;;16.10;99.90;;;;;;5072934;28;20508;-63
2021/10/29 22:54:56;;;;;;;1999.90;999.90;;;16.10;99.90;;;;;;5073086;28;20322;-63
2021/10/29 22:57:23;;;;;;;1999.90;999.90;;;16.10;99.90;;;;;;5073105;28;20165;-64
2021/10/29 22:59:50;;;;;;;1999.90;999.90;;;16.10;99.90;;;;;;5072934;28;20183;-64
2021/10/29 23:02:17;;;;;;;1999.90;999.90;;;16.00;99.90;;;;;;5073057;28;20173;-64
2021/10/29 23:04:44;;;;;;;1999.90;999.90;;;15.90;99.90;;;;;;5072939;28;20183;-64
2021/10/29 23:07:10;;;;;;;1999.90;999.90;;;15.80;99.90;;;;;;5072987;28;20188;-64
2021/10/29 23:09:37;;;;;;;1999.90;999.90;;;15.70;99.90;;;;;;5072896;28;20715;-64
2021/10/29 23:12:04;;;;;;;1999.90;999.90;;;15.60;99.90;;;;;;5072866;28;20218;-64
2021/10/29 23:14:31;;;;;;;1999.90;999.90;;;15.50;99.90;;;;;;5072537;28;20292;-64
2021/10/29 23:16:58;;;;;;;1999.90;999.90;;;15.60;99.90;;;;;;5073022;28;20173;-64
2021/10/29 23:19:25;;;;;;;1999.90;999.90;;;15.60;99.90;;;;;;5072875;28;20212;-63
2021/10/29 23:21:52;;;;;;;1999.90;999.90;;;15.60;99.90;;;;;;5072812;28;20619;-63
2021/10/29 23:24:19;;;;;;;1999.90;999.90;;;15.60;99.90;;;;;;5072765;28;20554;-64
2021/10/29 23:26:45;;;;;;;1999.90;999.90;;;15.50;99.90;;;;;;5072767;28;20699;-64
2021/10/29 23:29:13;;;;;;;1999.90;999.90;;;15.50;99.90;;;;;;5072688;28;20298;-64
2021/10/29 23:31:39;;;;;;;1999.90;999.90;;;15.50;99.90;;;;;;5072769;28;20177;-64
2021/10/29 23:34:06;;;;;;;1999.90;999.90;;;15.40;99.90;;;;;;5072565;28;20286;-64
2021/10/29 23:36:33;;;;;;;1999.90;999.90;;;15.40;99.90;;;;;;5072558;28;20622;-64
2021/10/29 23:39:00;;;;;;;1999.90;999.90;;;15.30;99.90;;;;;;5072731;28;20172;-64
2021/10/29 23:41:27;;;;;;;1999.90;999.90;;;15.40;99.90;;;;;;5072724;28;20172;-65
2021/10/29 23:43:53;;;;;;;1999.90;999.90;;;15.30;99.90;;;;;;5072640;28;20196;-65
2021/10/29 23:46:20;;;;;;;1999.90;999.90;;;15.30;99.90;;;;;;5072539;28;20526;-64
2021/10/29 23:48:47;;;;;;;1999.90;999.90;;;15.20;99.90;;;;;;5072454;28;20562;-64
2021/10/29 23:51:14;;;;;;;1999.90;999.90;;;15.20;99.90;;;;;;5072535;28;20172;-64
2021/10/29 23:53:41;;;;;;;1999.90;999.90;;;15.20;99.90;;;;;;5072501;28;20607;-64